createdAt,value
2022-11-28T00:02:45.394Z,100320.41
2022-11-28T00:07:46.926Z,100292.78
2022-11-28T00:12:48.298Z,100291.97
2022-11-28T00:17:49.656Z,100289.44
2022-11-28T00:22:52.100Z,100292.47
2022-11-28T00:27:53.521Z,100289.03
2022-11-28T00:32:54.889Z,100269.81
2022-11-28T00:37:56.236Z,100270.13
2022-11-28T00:42:57.588Z,100272.13
2022-11-28T00:47:58.992Z,100270.63
2022-11-28T00:53:00.331Z,100263.06
2022-11-28T00:58:01.707Z,100266.84
2022-11-28T01:03:03.585Z,100268.94
2022-11-28T01:08:04.929Z,100270.22
2022-11-28T01:13:06.423Z,100274.00
2022-11-28T01:18:08.135Z,100269.19
2022-11-28T01:23:09.499Z,100262.19
2022-11-28T01:28:10.831Z,100264.41
2022-11-28T01:33:12.234Z,100257.50
2022-11-28T01:38:13.536Z,100251.66
2022-11-28T01:43:15.213Z,100235.28
2022-11-28T01:48:22.793Z,100208.69
2022-11-28T01:53:26.389Z,100216.78
2022-11-28T01:58:29.172Z,100199.13
2022-11-28T02:03:38.286Z,100179.06
2022-11-28T02:08:39.972Z,100192.78
2022-11-28T02:13:53.166Z,100192.84
2022-11-28T02:18:59.412Z,100174.19
2022-11-28T02:24:31.812Z,100181.06
2022-11-28T02:30:00.781Z,100164.72
2022-11-28T02:35:19.577Z,100182.75
2022-11-28T02:40:47.066Z,100182.25
2022-11-28T02:46:13.677Z,100180.34
2022-11-28T02:51:28.769Z,100169.31
2022-11-28T02:56:30.311Z,100161.97
2022-11-28T03:01:38.189Z,100163.50
2022-11-28T03:06:52.175Z,100151.78
2022-11-28T03:12:29.300Z,100158.84
2022-11-28T03:17:54.866Z,100153.25
2022-11-28T03:23:14.985Z,100155.63
2022-11-28T03:28:23.023Z,100142.25
2022-11-28T03:33:27.794Z,100147.97
2022-11-28T03:38:35.576Z,100136.41
2022-11-28T03:43:43.951Z,100136.25
2022-11-28T03:48:49.555Z,100127.06
2022-11-28T03:53:56.214Z,100119.91
2022-11-28T03:59:16.488Z,100118.06
2022-11-28T04:04:38.806Z,100104.69
2022-11-28T04:09:49.422Z,100102.16
2022-11-28T04:14:59.453Z,100098.50
2022-11-28T04:20:09.148Z,100100.69
2022-11-28T04:25:14.909Z,100096.50
2022-11-28T04:30:16.650Z,100088.13
2022-11-28T04:35:27.058Z,100087.75
2022-11-28T04:40:32.144Z,100089.59
2022-11-28T04:45:43.809Z,100080.44
2022-11-28T04:51:09.365Z,100075.03
2022-11-28T04:56:20.883Z,100086.53
2022-11-28T05:01:27.655Z,100087.03
2022-11-28T05:06:34.979Z,100080.06
2022-11-28T05:11:36.337Z,100076.72
2022-11-28T05:16:37.726Z,100065.34
2022-11-28T05:21:39.137Z,100070.56
2022-11-28T05:26:40.555Z,100069.72
2022-11-28T05:31:41.931Z,100064.72
2022-11-28T05:36:43.342Z,100071.09
2022-11-28T05:41:44.716Z,100072.06
2022-11-28T05:46:46.208Z,100066.72
2022-11-28T05:51:48.705Z,100055.88
2022-11-28T05:56:50.119Z,100058.03
2022-11-28T06:01:51.708Z,100061.34
2022-11-28T06:06:53.067Z,100059.84
2022-11-28T06:11:54.428Z,100059.84
2022-11-28T06:16:55.851Z,100060.00
2022-11-28T06:21:57.222Z,100053.19
2022-11-28T06:26:58.653Z,100054.16
2022-11-28T06:32:00.086Z,100051.16
2022-11-28T06:37:01.528Z,100044.31
2022-11-28T06:42:02.962Z,100055.84
2022-11-28T06:47:04.469Z,100056.34
2022-11-28T06:52:05.857Z,100049.97
2022-11-28T06:57:07.221Z,100043.63
2022-11-28T07:02:10.879Z,100052.81
2022-11-28T07:07:16.361Z,100059.84
2022-11-28T07:12:18.185Z,100078.38
2022-11-28T07:17:19.542Z,100074.69
2022-11-28T07:22:22.211Z,100078.38
2022-11-28T07:27:23.591Z,100075.41
2022-11-28T07:32:25.240Z,100079.94
2022-11-28T07:37:26.588Z,100086.78
2022-11-28T07:42:27.979Z,100093.31
2022-11-28T07:47:29.304Z,100086.50
2022-11-28T07:52:30.640Z,100078.63
2022-11-28T07:57:31.992Z,100085.81
2022-11-28T08:02:33.486Z,100092.03
2022-11-28T08:07:34.902Z,100091.69
2022-11-28T08:12:36.326Z,100098.53
2022-11-28T08:17:37.696Z,100085.34
2022-11-28T08:22:39.058Z,100085.50
2022-11-28T08:27:40.403Z,100080.16
2022-11-28T08:32:41.763Z,100079.66
2022-11-28T08:37:43.191Z,100084.00
2022-11-28T08:42:44.552Z,100079.00
2022-11-28T08:47:45.980Z,100069.97
2022-11-28T08:52:47.393Z,100068.78
2022-11-28T08:57:48.796Z,100061.38
2022-11-28T09:02:50.161Z,100072.59
2022-11-28T09:07:54.908Z,100058.34
2022-11-28T09:12:56.417Z,100059.31
2022-11-28T09:17:58.178Z,100067.00
2022-11-28T09:22:59.729Z,100076.06
2022-11-28T09:28:01.325Z,100080.25
2022-11-28T09:33:02.777Z,100070.84
2022-11-28T09:38:04.213Z,100080.06
2022-11-28T09:43:36.435Z,100073.84
2022-11-28T09:48:46.617Z,100068.25
2022-11-28T09:54:16.690Z,100057.16
2022-11-28T09:59:24.444Z,100048.13
2022-11-28T10:05:05.555Z,100055.91
2022-11-28T10:10:34.426Z,100048.59
2022-11-28T10:15:54.165Z,100052.06
2022-11-28T10:21:02.587Z,100047.00
2022-11-28T10:26:23.254Z,100040.75
2022-11-28T10:31:33.402Z,100037.56
2022-11-28T10:36:51.607Z,100035.13
2022-11-28T10:42:11.754Z,100020.56
2022-11-28T10:47:48.729Z,100026.91
2022-11-28T10:53:27.136Z,100027.72
2022-11-28T10:58:33.078Z,100031.44
2022-11-28T11:03:38.591Z,100019.25
2022-11-28T11:08:41.390Z,100014.75
2022-11-28T11:14:04.143Z,100004.53
2022-11-28T11:19:05.561Z,100009.91
2022-11-28T11:24:17.167Z,100005.28
2022-11-28T11:29:35.621Z,100005.44
2022-11-28T11:34:44.207Z,100004.63
2022-11-28T11:39:52.850Z,99994.56
2022-11-28T11:44:54.467Z,99990.53
2022-11-28T11:50:05.016Z,99991.09
2022-11-28T11:55:15.004Z,99986.47
2022-11-28T12:00:21.050Z,99999.63
2022-11-28T12:05:52.696Z,99998.41
2022-11-28T14:08:06.066Z,99975.91
2022-11-28T14:13:16.466Z,99966.53
2022-11-28T14:19:00.317Z,99969.34
2022-11-28T14:29:39.406Z,99969.69
2022-11-28T14:34:47.294Z,99978.41
2022-11-28T14:39:50.927Z,99984.47
2022-11-28T14:55:26.157Z,99990.22
2022-11-28T15:00:35.054Z,99995.09
2022-11-28T15:05:52.476Z,99990.50
2022-11-28T15:16:57.659Z,99998.28
2022-11-28T15:21:59.471Z,99989.63
2022-11-28T15:27:07.073Z,99987.34
2022-11-28T15:32:14.799Z,99988.25
2022-11-28T15:37:19.804Z,99989.91
2022-11-28T15:42:29.712Z,99987.97
2022-11-28T15:47:32.172Z,99993.53
2022-11-28T15:52:33.855Z,99992.47
2022-11-28T15:57:36.915Z,99995.00
2022-11-28T16:02:40.879Z,100004.19
2022-11-28T16:13:04.761Z,100004.59
2022-11-28T16:18:07.059Z,100004.03
2022-11-28T16:23:30.506Z,100005.72
2022-11-28T16:28:43.132Z,100002.19
2022-11-28T16:33:48.175Z,100006.72
2022-11-28T16:39:04.769Z,100013.31
2022-11-28T16:44:14.802Z,100011.28
2022-11-28T16:49:42.411Z,100014.13
2022-11-28T16:54:44.121Z,100014.47
2022-11-28T16:59:47.163Z,100017.81
2022-11-28T17:04:50.330Z,100013.31
2022-11-28T17:09:51.718Z,100017.81
2022-11-28T17:14:54.286Z,100015.13
2022-11-28T17:19:55.656Z,100011.28
2022-11-28T17:25:01.620Z,100019.97
2022-11-28T17:30:03.113Z,100019.50
2022-11-28T17:35:13.708Z,100025.75
2022-11-28T17:40:33.427Z,100035.50
2022-11-28T17:45:35.303Z,100029.66
2022-11-28T17:50:37.280Z,100027.63
2022-11-28T17:55:40.971Z,100031.44
2022-11-28T18:00:42.662Z,100023.66
2022-11-28T18:05:46.727Z,100022.66
2022-11-28T18:10:48.519Z,100020.81
2022-11-28T18:15:53.190Z,100023.50
2022-11-28T18:20:54.552Z,100030.34
2022-11-28T18:25:55.883Z,100030.91
2022-11-28T18:30:57.230Z,100028.09
2022-11-28T18:36:08.613Z,100034.66
2022-11-28T18:41:10.124Z,100039.34
2022-11-28T18:46:17.149Z,100031.03
2022-11-28T18:51:21.811Z,100038.44
2022-11-28T18:56:24.818Z,100043.13
2022-11-28T19:01:32.363Z,100046.47
2022-11-28T19:06:34.694Z,100037.78
2022-11-28T19:11:36.973Z,100042.75
2022-11-28T19:16:38.397Z,100048.31
2022-11-28T19:21:39.803Z,100047.66
2022-11-28T19:26:41.372Z,100049.50
2022-11-28T19:31:42.880Z,100047.31
2022-11-28T19:36:47.479Z,100046.09
2022-11-28T19:41:50.630Z,100042.41
2022-11-28T19:46:53.368Z,100051.31
2022-11-28T19:51:54.724Z,100054.53
2022-11-28T19:56:56.146Z,100055.69
2022-11-28T20:01:58.699Z,100050.72
2022-11-28T20:07:00.076Z,100055.41
2022-11-28T20:12:01.421Z,100056.25
2022-11-28T20:17:02.774Z,100064.28
2022-11-28T20:22:04.123Z,100065.13
2022-11-28T20:27:05.515Z,100072.34
2022-11-28T20:32:06.962Z,100073.84
2022-11-28T20:37:08.492Z,100087.75
2022-11-28T20:42:09.928Z,100083.03
2022-11-28T20:47:11.696Z,100080.34
2022-11-28T20:52:13.092Z,100087.75
2022-11-28T20:57:21.408Z,100082.75
2022-11-28T21:02:23.664Z,100078.72
2022-11-28T21:07:26.894Z,100084.78
2022-11-28T21:12:28.261Z,100091.19
2022-11-28T21:17:29.636Z,100087.84
2022-11-28T21:22:31.682Z,100089.69
2022-11-28T21:27:35.217Z,100089.88
2022-11-28T21:32:36.570Z,100095.09
2022-11-28T21:37:37.918Z,100095.56
2022-11-28T21:42:39.294Z,100094.25
2022-11-28T21:47:40.685Z,100097.31
2022-11-28T21:52:42.014Z,100088.78
2022-11-28T21:57:44.525Z,100096.50
2022-11-28T22:02:47.270Z,100090.47
2022-11-28T22:07:48.654Z,100089.03
2022-11-28T22:12:50.045Z,100095.53
2022-11-28T22:17:51.395Z,100096.88
2022-11-28T22:22:52.801Z,100098.03
2022-11-28T22:27:54.268Z,100102.56
2022-11-28T22:32:55.758Z,100097.19
2022-11-28T22:37:57.092Z,100101.38
2022-11-28T22:42:58.452Z,100098.03
2022-11-28T22:47:59.977Z,100103.06
2022-11-28T22:53:01.410Z,100102.91
2022-11-28T22:58:02.772Z,100108.25
2022-11-28T23:03:04.193Z,100107.78
2022-11-28T23:08:05.811Z,100107.13
2022-11-28T23:13:07.164Z,100110.84
2022-11-28T23:18:08.501Z,100115.22
2022-11-28T23:23:09.826Z,100113.03
2022-11-28T23:28:11.164Z,100114.88
2022-11-28T23:33:12.510Z,100117.41
2022-11-28T23:38:15.523Z,100114.72
2022-11-28T23:43:16.868Z,100123.59
2022-11-28T23:48:18.429Z,100109.53
2022-11-28T23:53:19.789Z,100118.75
2022-11-28T23:58:21.126Z,100108.69
